sensor_id;sensor_type;location;lat;lon;timestamp;P1;durP1;ratioP1;P2;durP2;ratioP2
14007;SDS011;61651;45.508;12.232;2023-05-07T00:02:29;7.07;;;6.35;;
14007;SDS011;61651;45.508;12.232;2023-05-07T00:05:33;6.78;;;6.15;;
14007;SDS011;61651;45.508;12.232;2023-05-07T00:08:36;10.60;;;6.30;;
14007;SDS011;61651;45.508;12.232;2023-05-07T00:11:38;6.68;;;6.05;;
14007;SDS011;61651;45.508;12.232;2023-05-07T00:14:40;8.07;;;6.05;;
14007;SDS011;61651;45.508;12.232;2023-05-07T00:17:42;6.50;;;5.70;;
14007;SDS011;61651;45.508;12.232;2023-05-07T00:20:46;6.82;;;6.07;;
14007;SDS011;61651;45.508;12.232;2023-05-07T00:23:48;5.72;;;5.22;;
14007;SDS011;61651;45.508;12.232;2023-05-07T00:26:50;8.90;;;6.63;;
14007;SDS011;61651;45.508;12.232;2023-05-07T00:29:52;7.63;;;6.47;;
14007;SDS011;61651;45.508;12.232;2023-05-07T00:32:54;7.82;;;7.07;;
14007;SDS011;61651;45.508;12.232;2023-05-07T00:35:58;6.63;;;6.03;;
14007;SDS011;61651;45.508;12.232;2023-05-07T00:39:01;7.07;;;6.38;;
14007;SDS011;61651;45.508;12.232;2023-05-07T00:45:04;8.52;;;6.53;;
14007;SDS011;61651;45.508;12.232;2023-05-07T00:48:07;7.40;;;6.07;;
14007;SDS011;61651;45.508;12.232;2023-05-07T00:51:11;7.22;;;5.93;;
14007;SDS011;61651;45.508;12.232;2023-05-07T00:54:13;6.82;;;5.72;;
14007;SDS011;61651;45.508;12.232;2023-05-07T00:57:15;6.80;;;6.10;;
14007;SDS011;61651;45.508;12.232;2023-05-07T01:00:17;8.43;;;5.80;;
14007;SDS011;61651;45.508;12.232;2023-05-07T01:03:20;7.82;;;6.00;;
14007;SDS011;61651;45.508;12.232;2023-05-07T01:06:24;6.00;;;5.40;;
14007;SDS011;61651;45.508;12.232;2023-05-07T01:09:27;6.80;;;6.20;;
14007;SDS011;61651;45.508;12.232;2023-05-07T01:12:30;7.10;;;6.32;;
14007;SDS011;61651;45.508;12.232;2023-05-07T01:15:32;6.90;;;5.47;;
14007;SDS011;61651;45.508;12.232;2023-05-07T01:18:34;7.30;;;6.60;;
14007;SDS011;61651;45.508;12.232;2023-05-07T01:21:38;7.70;;;7.00;;
14007;SDS011;61651;45.508;12.232;2023-05-07T01:24:41;6.82;;;6.20;;
14007;SDS011;61651;45.508;12.232;2023-05-07T01:27:44;9.90;;;6.80;;
14007;SDS011;61651;45.508;12.232;2023-05-07T01:30:47;7.70;;;7.00;;
14007;SDS011;61651;45.508;12.232;2023-05-07T01:33:51;10.60;;;9.48;;
14007;SDS011;61651;45.508;12.232;2023-05-07T01:36:54;11.70;;;9.38;;
14007;SDS011;61651;45.508;12.232;2023-05-07T01:39:59;10.30;;;9.27;;
14007;SDS011;61651;45.508;12.232;2023-05-07T01:43:03;9.38;;;8.25;;
14007;SDS011;61651;45.508;12.232;2023-05-07T01:46:05;9.50;;;8.57;;
14007;SDS011;61651;45.508;12.232;2023-05-07T01:49:10;11.02;;;9.95;;
14007;SDS011;61651;45.508;12.232;2023-05-07T01:52:12;12.38;;;11.00;;
14007;SDS011;61651;45.508;12.232;2023-05-07T01:55:16;13.30;;;11.77;;
14007;SDS011;61651;45.508;12.232;2023-05-07T01:58:18;13.90;;;12.52;;
14007;SDS011;61651;45.508;12.232;2023-05-07T02:01:20;15.38;;;12.95;;
14007;SDS011;61651;45.508;12.232;2023-05-07T02:04:22;15.32;;;13.18;;
14007;SDS011;61651;45.508;12.232;2023-05-07T02:07:24;14.48;;;12.95;;
14007;SDS011;61651;45.508;12.232;2023-05-07T02:10:28;14.50;;;13.00;;
14007;SDS011;61651;45.508;12.232;2023-05-07T02:13:31;14.45;;;12.90;;
14007;SDS011;61651;45.508;12.232;2023-05-07T02:16:34;17.70;;;15.50;;
14007;SDS011;61651;45.508;12.232;2023-05-07T02:19:36;16.70;;;14.93;;
14007;SDS011;61651;45.508;12.232;2023-05-07T02:22:38;16.60;;;14.70;;
14007;SDS011;61651;45.508;12.232;2023-05-07T02:25:41;18.40;;;15.20;;
14007;SDS011;61651;45.508;12.232;2023-05-07T02:28:43;16.17;;;14.45;;
14007;SDS011;61651;45.508;12.232;2023-05-07T02:31:45;16.38;;;13.77;;
14007;SDS011;61651;45.508;12.232;2023-05-07T02:34:49;15.73;;;13.98;;
14007;SDS011;61651;45.508;12.232;2023-05-07T02:37:52;14.63;;;12.65;;
14007;SDS011;61651;45.508;12.232;2023-05-07T02:40:55;15.07;;;13.55;;
14007;SDS011;61651;45.508;12.232;2023-05-07T02:43:57;14.27;;;12.85;;
14007;SDS011;61651;45.508;12.232;2023-05-07T02:46:59;14.93;;;13.20;;
14007;SDS011;61651;45.508;12.232;2023-05-07T02:50:01;15.10;;;12.40;;
14007;SDS011;61651;45.508;12.232;2023-05-07T02:53:03;12.52;;;11.27;;
14007;SDS011;61651;45.508;12.232;2023-05-07T02:56:07;14.20;;;12.65;;
14007;SDS011;61651;45.508;12.232;2023-05-07T02:59:09;13.27;;;11.90;;
14007;SDS011;61651;45.508;12.232;2023-05-07T03:02:11;13.70;;;11.27;;
14007;SDS011;61651;45.508;12.232;2023-05-07T03:05:13;12.40;;;11.10;;
14007;SDS011;61651;45.508;12.232;2023-05-07T03:08:15;15.55;;;11.50;;
14007;SDS011;61651;45.508;12.232;2023-05-07T03:11:18;12.07;;;10.88;;
14007;SDS011;61651;45.508;12.232;2023-05-07T03:14:20;11.02;;;9.90;;
14007;SDS011;61651;45.508;12.232;2023-05-07T03:17:22;11.23;;;10.13;;
14007;SDS011;61651;45.508;12.232;2023-05-07T03:20:24;10.57;;;9.55;;
14007;SDS011;61651;45.508;12.232;2023-05-07T03:23:26;11.00;;;9.90;;
14007;SDS011;61651;45.508;12.232;2023-05-07T03:26:30;11.68;;;10.05;;
14007;SDS011;61651;45.508;12.232;2023-05-07T03:29:32;13.68;;;11.30;;
14007;SDS011;61651;45.508;12.232;2023-05-07T03:32:34;15.77;;;11.30;;
14007;SDS011;61651;45.508;12.232;2023-05-07T03:35:36;12.77;;;11.48;;
14007;SDS011;61651;45.508;12.232;2023-05-07T03:38:38;12.20;;;11.00;;
14007;SDS011;61651;45.508;12.232;2023-05-07T03:41:41;11.27;;;10.18;;
14007;SDS011;61651;45.508;12.232;2023-05-07T03:44:43;12.27;;;10.85;;
14007;SDS011;61651;45.508;12.232;2023-05-07T03:47:45;12.30;;;10.80;;
14007;SDS011;61651;45.508;12.232;2023-05-07T03:50:47;12.10;;;10.40;;
14007;SDS011;61651;45.508;12.232;2023-05-07T03:53:49;11.85;;;10.43;;
14007;SDS011;61651;45.508;12.232;2023-05-07T03:56:54;11.65;;;10.48;;
14007;SDS011;61651;45.508;12.232;2023-05-07T03:59:56;13.10;;;10.68;;
14007;SDS011;61651;45.508;12.232;2023-05-07T04:02:58;12.02;;;10.82;;
14007;SDS011;61651;45.508;12.232;2023-05-07T04:06:00;10.93;;;9.60;;
14007;SDS011;61651;45.508;12.232;2023-05-07T04:09:02;12.18;;;10.98;;
14007;SDS011;61651;45.508;12.232;2023-05-07T04:12:06;11.85;;;10.52;;
14007;SDS011;61651;45.508;12.232;2023-05-07T04:15:08;10.75;;;9.75;;
14007;SDS011;61651;45.508;12.232;2023-05-07T04:18:10;12.52;;;10.52;;
14007;SDS011;61651;45.508;12.232;2023-05-07T04:21:16;11.82;;;10.63;;
14007;SDS011;61651;45.508;12.232;2023-05-07T04:24:18;11.88;;;10.73;;
14007;SDS011;61651;45.508;12.232;2023-05-07T04:27:22;11.55;;;10.20;;
14007;SDS011;61651;45.508;12.232;2023-05-07T04:30:24;11.32;;;9.98;;
14007;SDS011;61651;45.508;12.232;2023-05-07T04:33:26;12.27;;;10.98;;
14007;SDS011;61651;45.508;12.232;2023-05-07T04:36:28;11.60;;;10.38;;
14007;SDS011;61651;45.508;12.232;2023-05-07T04:39:33;11.65;;;10.45;;
14007;SDS011;61651;45.508;12.232;2023-05-07T04:42:36;12.95;;;11.60;;
14007;SDS011;61651;45.508;12.232;2023-05-07T04:45:38;12.20;;;10.90;;
14007;SDS011;61651;45.508;12.232;2023-05-07T04:48:41;12.35;;;11.18;;
14007;SDS011;61651;45.508;12.232;2023-05-07T04:51:43;12.45;;;11.25;;
14007;SDS011;61651;45.508;12.232;2023-05-07T04:54:45;15.18;;;12.43;;
14007;SDS011;61651;45.508;12.232;2023-05-07T04:57:49;11.80;;;10.27;;
14007;SDS011;61651;45.508;12.232;2023-05-07T05:00:51;12.23;;;10.93;;
14007;SDS011;61651;45.508;12.232;2023-05-07T05:03:53;13.25;;;11.85;;
14007;SDS011;61651;45.508;12.232;2023-05-07T05:06:55;13.10;;;11.75;;
14007;SDS011;61651;45.508;12.232;2023-05-07T05:09:57;14.05;;;12.25;;
14007;SDS011;61651;45.508;12.232;2023-05-07T05:13:01;15.18;;;13.57;;
14007;SDS011;61651;45.508;12.232;2023-05-07T05:16:03;14.73;;;13.23;;
14007;SDS011;61651;45.508;12.232;2023-05-07T05:19:06;18.25;;;13.60;;
14007;SDS011;61651;45.508;12.232;2023-05-07T05:22:08;13.55;;;12.18;;
14007;SDS011;61651;45.508;12.232;2023-05-07T05:25:09;14.95;;;12.93;;
14007;SDS011;61651;45.508;12.232;2023-05-07T05:28:13;15.65;;;13.07;;
14007;SDS011;61651;45.508;12.232;2023-05-07T05:31:15;13.48;;;12.13;;
14007;SDS011;61651;45.508;12.232;2023-05-07T05:34:17;17.83;;;12.65;;
14007;SDS011;61651;45.508;12.232;2023-05-07T05:37:19;16.70;;;13.13;;
14007;SDS011;61651;45.508;12.232;2023-05-07T05:40:21;14.63;;;13.15;;
14007;SDS011;61651;45.508;12.232;2023-05-07T05:43:24;14.15;;;12.75;;
14007;SDS011;61651;45.508;12.232;2023-05-07T05:46:26;13.65;;;12.23;;
14007;SDS011;61651;45.508;12.232;2023-05-07T05:49:28;13.65;;;12.25;;
14007;SDS011;61651;45.508;12.232;2023-05-07T05:52:30;12.35;;;11.13;;
14007;SDS011;61651;45.508;12.232;2023-05-07T05:55:32;11.82;;;10.63;;
14007;SDS011;61651;45.508;12.232;2023-05-07T05:58:36;10.88;;;9.68;;
14007;SDS011;61651;45.508;12.232;2023-05-07T06:01:38;11.38;;;10.27;;
14007;SDS011;61651;45.508;12.232;2023-05-07T06:04:40;10.52;;;9.52;;
14007;SDS011;61651;45.508;12.232;2023-05-07T06:07:42;10.65;;;9.45;;
14007;SDS011;61651;45.508;12.232;2023-05-07T06:10:44;11.40;;;9.80;;
14007;SDS011;61651;45.508;12.232;2023-05-07T06:13:48;11.10;;;9.57;;
14007;SDS011;61651;45.508;12.232;2023-05-07T06:16:50;8.80;;;7.90;;
14007;SDS011;61651;45.508;12.232;2023-05-07T06:19:52;8.02;;;7.22;;
14007;SDS011;61651;45.508;12.232;2023-05-07T06:22:54;8.55;;;7.15;;
14007;SDS011;61651;45.508;12.232;2023-05-07T06:25:56;7.53;;;6.72;;
14007;SDS011;61651;45.508;12.232;2023-05-07T06:28:59;7.15;;;6.45;;
14007;SDS011;61651;45.508;12.232;2023-05-07T06:32:06;7.03;;;6.32;;
14007;SDS011;61651;45.508;12.232;2023-05-07T06:35:08;6.35;;;5.75;;
14007;SDS011;61651;45.508;12.232;2023-05-07T06:38:10;6.95;;;5.10;;
14007;SDS011;61651;45.508;12.232;2023-05-07T06:41:12;4.90;;;4.40;;
14007;SDS011;61651;45.508;12.232;2023-05-07T06:44:16;4.75;;;4.35;;
14007;SDS011;61651;45.508;12.232;2023-05-07T06:47:18;5.28;;;4.45;;
14007;SDS011;61651;45.508;12.232;2023-05-07T06:50:20;4.20;;;3.90;;
14007;SDS011;61651;45.508;12.232;2023-05-07T06:53:22;5.68;;;4.95;;
14007;SDS011;61651;45.508;12.232;2023-05-07T06:56:24;5.07;;;4.40;;
14007;SDS011;61651;45.508;12.232;2023-05-07T06:59:27;5.40;;;4.70;;
14007;SDS011;61651;45.508;12.232;2023-05-07T07:02:29;4.45;;;4.05;;
14007;SDS011;61651;45.508;12.232;2023-05-07T07:05:31;5.63;;;4.68;;
14007;SDS011;61651;45.508;12.232;2023-05-07T07:08:33;4.55;;;4.13;;
14007;SDS011;61651;45.508;12.232;2023-05-07T07:11:35;4.32;;;3.92;;
14007;SDS011;61651;45.508;12.232;2023-05-07T07:14:39;4.07;;;3.78;;
14007;SDS011;61651;45.508;12.232;2023-05-07T07:17:41;4.18;;;3.83;;
14007;SDS011;61651;45.508;12.232;2023-05-07T07:20:43;3.97;;;3.25;;
14007;SDS011;61651;45.508;12.232;2023-05-07T07:23:45;4.18;;;3.88;;
14007;SDS011;61651;45.508;12.232;2023-05-07T07:26:47;6.40;;;4.75;;
14007;SDS011;61651;45.508;12.232;2023-05-07T07:29:50;4.50;;;4.05;;
14007;SDS011;61651;45.508;12.232;2023-05-07T07:32:53;4.47;;;4.07;;
14007;SDS011;61651;45.508;12.232;2023-05-07T07:35:55;5.03;;;4.05;;
14007;SDS011;61651;45.508;12.232;2023-05-07T07:38:57;6.18;;;3.70;;
14007;SDS011;61651;45.508;12.232;2023-05-07T07:41:59;4.47;;;3.83;;
14007;SDS011;61651;45.508;12.232;2023-05-07T07:45:03;4.53;;;3.70;;
14007;SDS011;61651;45.508;12.232;2023-05-07T07:48:06;4.45;;;4.00;;
14007;SDS011;61651;45.508;12.232;2023-05-07T07:51:08;6.53;;;3.67;;
14007;SDS011;61651;45.508;12.232;2023-05-07T07:54:10;3.72;;;3.42;;
14007;SDS011;61651;45.508;12.232;2023-05-07T07:57:12;3.70;;;3.40;;
14007;SDS011;61651;45.508;12.232;2023-05-07T08:00:17;3.70;;;3.40;;
14007;SDS011;61651;45.508;12.232;2023-05-07T08:03:19;3.60;;;3.30;;
14007;SDS011;61651;45.508;12.232;2023-05-07T08:06:21;3.50;;;3.20;;
14007;SDS011;61651;45.508;12.232;2023-05-07T08:09:23;3.80;;;3.40;;
14007;SDS011;61651;45.508;12.232;2023-05-07T08:12:25;3.60;;;3.30;;
14007;SDS011;61651;45.508;12.232;2023-05-07T08:15:28;3.85;;;3.30;;
14007;SDS011;61651;45.508;12.232;2023-05-07T08:18:30;3.88;;;3.58;;
14007;SDS011;61651;45.508;12.232;2023-05-07T08:21:32;4.15;;;3.75;;
14007;SDS011;61651;45.508;12.232;2023-05-07T08:24:34;3.55;;;3.25;;
14007;SDS011;61651;45.508;12.232;2023-05-07T08:27:36;4.22;;;3.92;;
14007;SDS011;61651;45.508;12.232;2023-05-07T08:30:39;5.13;;;3.53;;
14007;SDS011;61651;45.508;12.232;2023-05-07T08:33:43;3.35;;;3.03;;
14007;SDS011;61651;45.508;12.232;2023-05-07T08:36:45;3.97;;;3.67;;
14007;SDS011;61651;45.508;12.232;2023-05-07T08:39:48;4.88;;;3.85;;
14007;SDS011;61651;45.508;12.232;2023-05-07T08:42:50;4.15;;;3.85;;
14007;SDS011;61651;45.508;12.232;2023-05-07T08:45:55;3.50;;;3.20;;
14007;SDS011;61651;45.508;12.232;2023-05-07T08:49:02;4.82;;;3.47;;
14007;SDS011;61651;45.508;12.232;2023-05-07T08:52:04;4.20;;;3.80;;
14007;SDS011;61651;45.508;12.232;2023-05-07T08:55:07;4.15;;;3.80;;
14007;SDS011;61651;45.508;12.232;2023-05-07T08:58:10;4.03;;;3.60;;
14007;SDS011;61651;45.508;12.232;2023-05-07T09:01:14;3.75;;;3.45;;
14007;SDS011;61651;45.508;12.232;2023-05-07T09:04:17;4.32;;;3.78;;
14007;SDS011;61651;45.508;12.232;2023-05-07T09:07:19;4.20;;;3.80;;
14007;SDS011;61651;45.508;12.232;2023-05-07T09:10:22;4.40;;;3.63;;
14007;SDS011;61651;45.508;12.232;2023-05-07T09:13:24;6.75;;;3.65;;
14007;SDS011;61651;45.508;12.232;2023-05-07T09:16:28;4.00;;;3.42;;
14007;SDS011;61651;45.508;12.232;2023-05-07T09:19:31;4.07;;;3.67;;
14007;SDS011;61651;45.508;12.232;2023-05-07T09:22:33;4.22;;;3.88;;
14007;SDS011;61651;45.508;12.232;2023-05-07T09:25:35;3.78;;;3.47;;
14007;SDS011;61651;45.508;12.232;2023-05-07T09:28:38;3.58;;;3.25;;
14007;SDS011;61651;45.508;12.232;2023-05-07T09:31:43;3.00;;;2.80;;
14007;SDS011;61651;45.508;12.232;2023-05-07T09:34:45;3.38;;;3.08;;
14007;SDS011;61651;45.508;12.232;2023-05-07T09:37:47;3.55;;;3.25;;
14007;SDS011;61651;45.508;12.232;2023-05-07T09:40:52;3.53;;;2.72;;
14007;SDS011;61651;45.508;12.232;2023-05-07T09:44:04;3.00;;;2.78;;
14007;SDS011;61651;45.508;12.232;2023-05-07T09:47:07;3.70;;;3.28;;
14007;SDS011;61651;45.508;12.232;2023-05-07T09:50:11;3.45;;;3.15;;
14007;SDS011;61651;45.508;12.232;2023-05-07T09:53:17;3.28;;;3.08;;
14007;SDS011;61651;45.508;12.232;2023-05-07T09:56:19;3.40;;;3.10;;
14007;SDS011;61651;45.508;12.232;2023-05-07T09:59:22;3.47;;;3.17;;
14007;SDS011;61651;45.508;12.232;2023-05-07T10:02:27;3.58;;;3.10;;
14007;SDS011;61651;45.508;12.232;2023-05-07T10:05:31;3.25;;;2.78;;
14007;SDS011;61651;45.508;12.232;2023-05-07T10:08:35;3.10;;;2.90;;
14007;SDS011;61651;45.508;12.232;2023-05-07T10:11:37;3.70;;;3.40;;
14007;SDS011;61651;45.508;12.232;2023-05-07T10:14:40;3.47;;;3.17;;
14007;SDS011;61651;45.508;12.232;2023-05-07T10:17:44;3.67;;;3.38;;
14007;SDS011;61651;45.508;12.232;2023-05-07T10:20:46;3.72;;;3.35;;
14007;SDS011;61651;45.508;12.232;2023-05-07T10:23:49;4.07;;;3.60;;
14007;SDS011;61651;45.508;12.232;2023-05-07T10:26:55;3.63;;;2.88;;
14007;SDS011;61651;45.508;12.232;2023-05-07T10:30:03;3.83;;;3.53;;
14007;SDS011;61651;45.508;12.232;2023-05-07T10:33:13;4.30;;;3.90;;
14007;SDS011;61651;45.508;12.232;2023-05-07T10:36:18;3.90;;;3.60;;
14007;SDS011;61651;45.508;12.232;2023-05-07T10:39:20;4.30;;;3.50;;
14007;SDS011;61651;45.508;12.232;2023-05-07T10:42:23;3.83;;;3.53;;
14007;SDS011;61651;45.508;12.232;2023-05-07T10:45:25;4.97;;;3.40;;
14007;SDS011;61651;45.508;12.232;2023-05-07T10:48:29;3.30;;;3.05;;
14007;SDS011;61651;45.508;12.232;2023-05-07T10:51:32;3.47;;;3.15;;
14007;SDS011;61651;45.508;12.232;2023-05-07T10:54:35;3.35;;;3.10;;
14007;SDS011;61651;45.508;12.232;2023-05-07T10:57:39;3.55;;;2.95;;
14007;SDS011;61651;45.508;12.232;2023-05-07T11:00:41;3.35;;;3.05;;
14007;SDS011;61651;45.508;12.232;2023-05-07T11:07:26;3.30;;;3.00;;
14007;SDS011;61651;45.508;12.232;2023-05-07T11:10:49;3.30;;;3.00;;
14007;SDS011;61651;45.508;12.232;2023-05-07T11:13:52;3.88;;;3.05;;
14007;SDS011;61651;45.508;12.232;2023-05-07T11:16:58;4.05;;;3.08;;
14007;SDS011;61651;45.508;12.232;2023-05-07T11:20:04;6.65;;;2.97;;
14007;SDS011;61651;45.508;12.232;2023-05-07T11:23:08;3.47;;;3.17;;
14007;SDS011;61651;45.508;12.232;2023-05-07T11:26:10;4.55;;;3.20;;
14007;SDS011;61651;45.508;12.232;2023-05-07T11:29:13;3.00;;;2.78;;
14007;SDS011;61651;45.508;12.232;2023-05-07T11:32:17;3.20;;;3.00;;
14007;SDS011;61651;45.508;12.232;2023-05-07T11:35:23;3.35;;;2.72;;
14007;SDS011;61651;45.508;12.232;2023-05-07T11:38:27;2.97;;;2.60;;
14007;SDS011;61651;45.508;12.232;2023-05-07T11:41:33;3.47;;;3.17;;
14007;SDS011;61651;45.508;12.232;2023-05-07T11:44:41;3.15;;;2.88;;
14007;SDS011;61651;45.508;12.232;2023-05-07T11:47:43;3.22;;;2.92;;
14007;SDS011;61651;45.508;12.232;2023-05-07T11:50:49;3.55;;;3.10;;
14007;SDS011;61651;45.508;12.232;2023-05-07T11:53:54;3.30;;;2.80;;
14007;SDS011;61651;45.508;12.232;2023-05-07T11:56:56;3.00;;;2.80;;
14007;SDS011;61651;45.508;12.232;2023-05-07T11:59:59;4.18;;;3.03;;
14007;SDS011;61651;45.508;12.232;2023-05-07T12:03:04;2.95;;;2.72;;
14007;SDS011;61651;45.508;12.232;2023-05-07T12:06:06;4.07;;;3.03;;
14007;SDS011;61651;45.508;12.232;2023-05-07T12:09:10;3.38;;;2.70;;
14007;SDS011;61651;45.508;12.232;2023-05-07T12:12:12;2.90;;;2.70;;
14007;SDS011;61651;45.508;12.232;2023-05-07T12:15:15;3.03;;;2.83;;
14007;SDS011;61651;45.508;12.232;2023-05-07T12:18:18;3.85;;;2.70;;
14007;SDS011;61651;45.508;12.232;2023-05-07T12:21:20;3.08;;;2.72;;
14007;SDS011;61651;45.508;12.232;2023-05-07T12:24:26;2.80;;;2.60;;
14007;SDS011;61651;45.508;12.232;2023-05-07T12:27:28;3.38;;;2.63;;
14007;SDS011;61651;45.508;12.232;2023-05-07T12:30:30;2.67;;;2.47;;
14007;SDS011;61651;45.508;12.232;2023-05-07T12:33:33;2.40;;;2.22;;
14007;SDS011;61651;45.508;12.232;2023-05-07T12:36:36;2.45;;;2.33;;
14007;SDS011;61651;45.508;12.232;2023-05-07T12:39:46;3.03;;;2.22;;
14007;SDS011;61651;45.508;12.232;2023-05-07T12:42:49;2.30;;;2.10;;
14007;SDS011;61651;45.508;12.232;2023-05-07T12:45:55;2.40;;;2.20;;
14007;SDS011;61651;45.508;12.232;2023-05-07T12:48:58;2.70;;;2.20;;
14007;SDS011;61651;45.508;12.232;2023-05-07T12:52:01;2.33;;;2.13;;
14007;SDS011;61651;45.508;12.232;2023-05-07T12:55:05;2.42;;;1.95;;
14007;SDS011;61651;45.508;12.232;2023-05-07T12:58:13;2.13;;;1.92;;
14007;SDS011;61651;45.508;12.232;2023-05-07T13:01:17;2.50;;;2.30;;
14007;SDS011;61651;45.508;12.232;2023-05-07T13:04:19;2.70;;;2.17;;
14007;SDS011;61651;45.508;12.232;2023-05-07T13:07:24;2.78;;;2.25;;
14007;SDS011;61651;45.508;12.232;2023-05-07T13:10:27;2.25;;;2.13;;
14007;SDS011;61651;45.508;12.232;2023-05-07T13:13:30;2.25;;;2.05;;
14007;SDS011;61651;45.508;12.232;2023-05-07T13:16:32;5.43;;;1.95;;
14007;SDS011;61651;45.508;12.232;2023-05-07T13:19:34;2.15;;;2.00;;
14007;SDS011;61651;45.508;12.232;2023-05-07T13:22:37;1.95;;;1.85;;
14007;SDS011;61651;45.508;12.232;2023-05-07T13:25:40;2.10;;;2.00;;
14007;SDS011;61651;45.508;12.232;2023-05-07T13:28:42;2.95;;;1.90;;
14007;SDS011;61651;45.508;12.232;2023-05-07T13:31:44;1.70;;;1.60;;
14007;SDS011;61651;45.508;12.232;2023-05-07T13:34:46;2.15;;;1.98;;
14007;SDS011;61651;45.508;12.232;2023-05-07T13:37:48;2.22;;;2.00;;
14007;SDS011;61651;45.508;12.232;2023-05-07T13:40:53;2.85;;;2.10;;
14007;SDS011;61651;45.508;12.232;2023-05-07T13:43:55;2.38;;;2.17;;
14007;SDS011;61651;45.508;12.232;2023-05-07T13:46:57;2.33;;;1.83;;
14007;SDS011;61651;45.508;12.232;2023-05-07T13:50:00;2.08;;;1.98;;
14007;SDS011;61651;45.508;12.232;2023-05-07T13:53:02;2.38;;;2.10;;
14007;SDS011;61651;45.508;12.232;2023-05-07T13:56:06;2.80;;;2.30;;
14007;SDS011;61651;45.508;12.232;2023-05-07T13:59:08;2.55;;;2.35;;
14007;SDS011;61651;45.508;12.232;2023-05-07T14:02:10;2.17;;;1.90;;
14007;SDS011;61651;45.508;12.232;2023-05-07T14:05:12;2.80;;;2.30;;
14007;SDS011;61651;45.508;12.232;2023-05-07T14:08:14;2.53;;;2.25;;
14007;SDS011;61651;45.508;12.232;2023-05-07T14:11:20;2.78;;;2.50;;
14007;SDS011;61651;45.508;12.232;2023-05-07T14:14:22;3.40;;;2.72;;
14007;SDS011;61651;45.508;12.232;2023-05-07T14:17:24;7.30;;;2.88;;
14007;SDS011;61651;45.508;12.232;2023-05-07T14:20:27;4.20;;;2.58;;
14007;SDS011;61651;45.508;12.232;2023-05-07T14:23:30;2.90;;;2.60;;
14007;SDS011;61651;45.508;12.232;2023-05-07T14:26:34;16.17;;;6.45;;
14007;SDS011;61651;45.508;12.232;2023-05-07T14:29:36;3.95;;;2.40;;
14007;SDS011;61651;45.508;12.232;2023-05-07T14:32:38;2.97;;;2.58;;
14007;SDS011;61651;45.508;12.232;2023-05-07T14:35:40;3.15;;;2.33;;
14007;SDS011;61651;45.508;12.232;2023-05-07T14:38:45;2.33;;;2.13;;
14007;SDS011;61651;45.508;12.232;2023-05-07T14:41:48;5.25;;;2.72;;
14007;SDS011;61651;45.508;12.232;2023-05-07T14:44:50;2.42;;;2.20;;
14007;SDS011;61651;45.508;12.232;2023-05-07T14:47:53;2.63;;;2.40;;
14007;SDS011;61651;45.508;12.232;2023-05-07T14:50:55;2.88;;;2.38;;
14007;SDS011;61651;45.508;12.232;2023-05-07T14:53:57;2.33;;;1.98;;
14007;SDS011;61651;45.508;12.232;2023-05-07T14:57:01;4.72;;;2.53;;
14007;SDS011;61651;45.508;12.232;2023-05-07T15:00:04;2.30;;;2.10;;
14007;SDS011;61651;45.508;12.232;2023-05-07T15:03:09;2.35;;;2.15;;
14007;SDS011;61651;45.508;12.232;2023-05-07T15:06:11;2.95;;;2.40;;
14007;SDS011;61651;45.508;12.232;2023-05-07T15:09:13;4.40;;;3.22;;
14007;SDS011;61651;45.508;12.232;2023-05-07T15:12:16;4.07;;;3.72;;
14007;SDS011;61651;45.508;12.232;2023-05-07T15:15:18;2.60;;;2.40;;
14007;SDS011;61651;45.508;12.232;2023-05-07T15:18:20;5.15;;;3.10;;
14007;SDS011;61651;45.508;12.232;2023-05-07T15:21:22;2.58;;;2.38;;
14007;SDS011;61651;45.508;12.232;2023-05-07T15:24:26;2.38;;;2.17;;
14007;SDS011;61651;45.508;12.232;2023-05-07T15:27:29;2.92;;;2.30;;
14007;SDS011;61651;45.508;12.232;2023-05-07T15:30:31;4.03;;;2.40;;
14007;SDS011;61651;45.508;12.232;2023-05-07T15:33:34;2.90;;;2.70;;
14007;SDS011;61651;45.508;12.232;2023-05-07T15:36:36;2.90;;;2.60;;
14007;SDS011;61651;45.508;12.232;2023-05-07T15:39:38;2.92;;;2.72;;
14007;SDS011;61651;45.508;12.232;2023-05-07T15:42:41;3.65;;;2.63;;
14007;SDS011;61651;45.508;12.232;2023-05-07T15:45:44;2.67;;;2.45;;
14007;SDS011;61651;45.508;12.232;2023-05-07T15:48:46;3.30;;;3.00;;
14007;SDS011;61651;45.508;12.232;2023-05-07T15:51:48;3.15;;;2.53;;
14007;SDS011;61651;45.508;12.232;2023-05-07T15:54:54;3.08;;;2.88;;
14007;SDS011;61651;45.508;12.232;2023-05-07T15:57:57;2.53;;;2.33;;
14007;SDS011;61651;45.508;12.232;2023-05-07T16:01:00;6.65;;;2.90;;
14007;SDS011;61651;45.508;12.232;2023-05-07T16:04:03;3.50;;;2.67;;
14007;SDS011;61651;45.508;12.232;2023-05-07T16:07:05;3.03;;;2.83;;
14007;SDS011;61651;45.508;12.232;2023-05-07T16:10:08;2.55;;;2.35;;
14007;SDS011;61651;45.508;12.232;2023-05-07T16:13:12;3.42;;;2.60;;
14007;SDS011;61651;45.508;12.232;2023-05-07T16:16:18;3.10;;;2.70;;
14007;SDS011;61651;45.508;12.232;2023-05-07T16:19:20;2.75;;;2.55;;
14007;SDS011;61651;45.508;12.232;2023-05-07T16:22:23;2.70;;;2.50;;
14007;SDS011;61651;45.508;12.232;2023-05-07T16:25:26;2.90;;;2.70;;
14007;SDS011;61651;45.508;12.232;2023-05-07T16:28:29;2.80;;;2.47;;
14007;SDS011;61651;45.508;12.232;2023-05-07T16:31:31;7.50;;;3.08;;
14007;SDS011;61651;45.508;12.232;2023-05-07T16:34:33;3.33;;;2.50;;
14007;SDS011;61651;45.508;12.232;2023-05-07T16:37:35;2.80;;;2.58;;
14007;SDS011;61651;45.508;12.232;2023-05-07T16:40:40;2.72;;;2.38;;
14007;SDS011;61651;45.508;12.232;2023-05-07T16:43:44;5.30;;;2.40;;
14007;SDS011;61651;45.508;12.232;2023-05-07T16:46:46;3.72;;;2.60;;
14007;SDS011;61651;45.508;12.232;2023-05-07T16:49:49;3.15;;;2.80;;
14007;SDS011;61651;45.508;12.232;2023-05-07T16:52:51;4.57;;;2.90;;
14007;SDS011;61651;45.508;12.232;2023-05-07T16:55:52;2.72;;;2.53;;
14007;SDS011;61651;45.508;12.232;2023-05-07T16:58:56;3.40;;;3.10;;
14007;SDS011;61651;45.508;12.232;2023-05-07T17:01:59;4.75;;;2.90;;
14007;SDS011;61651;45.508;12.232;2023-05-07T17:05:00;3.28;;;3.00;;
14007;SDS011;61651;45.508;12.232;2023-05-07T17:08:03;5.25;;;3.08;;
14007;SDS011;61651;45.508;12.232;2023-05-07T17:11:05;3.08;;;2.88;;
14007;SDS011;61651;45.508;12.232;2023-05-07T17:14:08;2.70;;;2.50;;
14007;SDS011;61651;45.508;12.232;2023-05-07T17:17:11;3.53;;;2.40;;
14007;SDS011;61651;45.508;12.232;2023-05-07T17:20:13;2.97;;;2.78;;
14007;SDS011;61651;45.508;12.232;2023-05-07T17:23:15;3.03;;;2.47;;
14007;SDS011;61651;45.508;12.232;2023-05-07T17:26:17;4.28;;;2.45;;
14007;SDS011;61651;45.508;12.232;2023-05-07T17:29:21;3.08;;;2.80;;
14007;SDS011;61651;45.508;12.232;2023-05-07T17:32:23;2.97;;;2.67;;
14007;SDS011;61651;45.508;12.232;2023-05-07T17:35:25;3.08;;;2.78;;
14007;SDS011;61651;45.508;12.232;2023-05-07T17:38:27;3.40;;;3.20;;
14007;SDS011;61651;45.508;12.232;2023-05-07T17:41:29;3.60;;;3.30;;
14007;SDS011;61651;45.508;12.232;2023-05-07T17:44:33;3.42;;;3.13;;
14007;SDS011;61651;45.508;12.232;2023-05-07T17:47:35;3.60;;;3.17;;
14007;SDS011;61651;45.508;12.232;2023-05-07T17:50:37;3.63;;;3.20;;
14007;SDS011;61651;45.508;12.232;2023-05-07T17:53:39;5.13;;;3.58;;
14007;SDS011;61651;45.508;12.232;2023-05-07T17:56:41;4.65;;;4.07;;
14007;SDS011;61651;45.508;12.232;2023-05-07T17:59:44;4.32;;;3.95;;
14007;SDS011;61651;45.508;12.232;2023-05-07T18:02:46;5.18;;;4.00;;
14007;SDS011;61651;45.508;12.232;2023-05-07T18:05:51;5.25;;;4.22;;